createdAt,value
2019-01-15T00:00:24.536Z,2.9
2019-01-15T00:01:36.715Z,2.9
2019-01-15T00:02:49.025Z,2.9
2019-01-15T00:04:01.255Z,2.9
2019-01-15T00:05:13.377Z,2.8
2019-01-15T00:07:40.200Z,2.8
2019-01-15T00:08:50.023Z,2.8
2019-01-15T00:10:02.264Z,2.8
2019-01-15T00:11:14.271Z,2.8
2019-01-15T00:13:38.695Z,2.8
2019-01-15T00:16:03.152Z,2.8
2019-01-15T00:17:15.444Z,2.8
2019-01-15T00:19:39.658Z,2.8
2019-01-15T00:20:51.908Z,2.8
2019-01-15T00:22:04.110Z,2.8
2019-01-15T00:23:16.307Z,2.8
2019-01-15T00:24:28.483Z,2.8
2019-01-15T00:25:40.673Z,2.8
2019-01-15T00:26:52.874Z,2.8
2019-01-15T00:28:04.978Z,2.8
2019-01-15T00:29:17.307Z,2.8
2019-01-15T00:31:41.785Z,2.9
2019-01-15T00:32:53.789Z,2.8
2019-01-15T00:34:05.962Z,2.9
2019-01-15T00:35:18.156Z,2.8
2019-01-15T00:36:30.425Z,2.8
2019-01-15T00:37:42.619Z,2.8
2019-01-15T00:38:54.929Z,2.8
2019-01-15T00:40:06.982Z,2.8
2019-01-15T00:41:19.197Z,2.8
2019-01-15T00:43:43.527Z,2.8
2019-01-15T00:44:55.712Z,2.8
2019-01-15T00:46:08.034Z,2.8
2019-01-15T00:47:20.108Z,2.8
2019-01-15T00:48:32.564Z,2.8
2019-01-15T00:49:44.560Z,2.8
2019-01-15T00:50:56.783Z,2.8
2019-01-15T00:52:08.872Z,2.8
2019-01-15T00:55:45.603Z,2.8
2019-01-15T00:56:57.753Z,2.8
2019-01-15T00:58:09.841Z,2.8
2019-01-15T00:59:22.042Z,2.8
2019-01-15T01:00:34.406Z,2.7
2019-01-15T01:01:46.505Z,2.7
2019-01-15T01:02:58.617Z,2.7
2019-01-15T01:04:10.883Z,2.7
2019-01-15T01:05:23.032Z,2.7
2019-01-15T01:08:59.594Z,2.7
2019-01-15T01:10:11.854Z,2.7
2019-01-15T01:11:24.058Z,2.7
2019-01-15T01:12:36.183Z,2.7
2019-01-15T01:13:48.427Z,2.7
2019-01-15T01:15:00.627Z,2.6
2019-01-15T01:16:12.760Z,2.6
2019-01-15T01:17:25.016Z,2.6
2019-01-15T01:19:49.331Z,2.6
2019-01-15T01:21:01.639Z,2.6
2019-01-15T01:22:13.869Z,2.6
2019-01-15T01:23:26.040Z,2.6
2019-01-15T01:24:38.119Z,2.6
2019-01-15T01:25:50.308Z,2.6
2019-01-15T01:27:02.580Z,2.6
2019-01-15T01:28:14.758Z,2.6
2019-01-15T01:29:27.073Z,2.6
2019-01-15T01:31:51.356Z,2.6
2019-01-15T01:33:03.478Z,2.6
2019-01-15T01:35:27.936Z,2.5
2019-01-15T01:36:40.181Z,2.5
2019-01-15T01:37:52.264Z,2.5
2019-01-15T01:39:04.432Z,2.5
2019-01-15T01:40:16.703Z,2.5
2019-01-15T01:41:28.897Z,2.5
2019-01-15T01:43:53.404Z,2.5
2019-01-15T01:45:05.412Z,2.5
2019-01-15T01:46:17.676Z,2.5
2019-01-15T01:47:29.873Z,2.5
2019-01-15T01:48:42.099Z,2.5
2019-01-15T01:49:54.268Z,2.5
2019-01-15T01:51:06.480Z,2.5
2019-01-15T01:52:18.727Z,2.5
2019-01-15T01:53:30.778Z,2.5
2019-01-15T01:55:55.149Z,2.5
2019-01-15T01:57:09.341Z,2.5
2019-01-15T01:58:19.686Z,2.5
2019-01-15T01:59:31.730Z,2.5
2019-01-15T02:00:44.101Z,2.5
2019-01-15T02:01:56.119Z,2.5
2019-01-15T02:03:08.472Z,2.5
2019-01-15T02:04:20.504Z,2.5
2019-01-15T02:05:32.857Z,2.5
2019-01-15T02:07:57.196Z,2.5
2019-01-15T02:09:09.624Z,2.5
2019-01-15T02:10:21.488Z,2.5
2019-01-15T02:11:33.675Z,2.5
2019-01-15T02:12:45.923Z,2.5
2019-01-15T02:13:58.095Z,2.5
2019-01-15T02:15:10.338Z,2.5
2019-01-15T02:16:22.527Z,2.5
2019-01-15T02:17:34.731Z,2.5
2019-01-15T02:19:59.194Z,2.6
2019-01-15T02:21:11.235Z,2.6
2019-01-15T02:22:23.508Z,2.6
2019-01-15T02:23:35.615Z,2.6
2019-01-15T02:26:00.006Z,2.6
2019-01-15T02:27:12.463Z,2.6
2019-01-15T02:28:24.436Z,2.6
2019-01-15T02:29:36.645Z,2.6
2019-01-15T02:32:00.986Z,2.7
2019-01-15T02:33:13.290Z,2.7
2019-01-15T02:34:25.477Z,2.7
2019-01-15T02:35:37.575Z,2.7
2019-01-15T02:36:49.758Z,2.7
2019-01-15T02:38:02.020Z,2.7
2019-01-15T02:39:14.159Z,2.7
2019-01-15T02:40:26.364Z,2.7
2019-01-15T02:41:38.781Z,2.7
2019-01-15T02:44:03.028Z,2.7
2019-01-15T02:45:15.121Z,2.7
2019-01-15T02:46:27.333Z,2.7
2019-01-15T02:47:39.600Z,2.7
2019-01-15T02:48:51.872Z,2.7
2019-01-15T02:50:03.955Z,2.8
2019-01-15T02:51:16.246Z,2.8
2019-01-15T02:52:28.306Z,2.8
2019-01-15T02:56:05.089Z,2.8
2019-01-15T02:57:17.087Z,2.8
2019-01-15T02:58:29.272Z,2.8
2019-01-15T02:59:41.510Z,2.8
2019-01-15T03:00:53.785Z,2.8
2019-01-15T03:02:05.952Z,2.8
2019-01-15T03:03:18.120Z,2.8
2019-01-15T03:04:30.340Z,2.9
2019-01-15T03:05:42.518Z,2.9
2019-01-15T03:06:54.653Z,2.9
2019-01-15T03:08:06.922Z,2.9
2019-01-15T03:09:19.039Z,2.9
2019-01-15T03:11:43.443Z,2.9
2019-01-15T03:12:55.642Z,2.9
2019-01-15T03:14:07.843Z,2.9
2019-01-15T03:15:20.021Z,3
2019-01-15T03:16:32.200Z,3
2019-01-15T03:18:56.664Z,3
2019-01-15T03:20:08.871Z,3
2019-01-15T03:21:21.021Z,3
2019-01-15T03:22:33.173Z,3
2019-01-15T03:23:45.406Z,3
2019-01-15T03:24:57.781Z,3
2019-01-15T03:26:09.779Z,3
2019-01-15T03:27:21.975Z,3
2019-01-15T03:28:34.156Z,3.1
2019-01-15T03:29:46.408Z,3.1
2019-01-15T03:32:10.856Z,3.1
2019-01-15T03:33:22.972Z,3.1
2019-01-15T03:34:35.279Z,3.1
2019-01-15T03:35:47.376Z,3.1
2019-01-15T03:36:59.532Z,3.1
2019-01-15T03:38:11.725Z,3.1
2019-01-15T03:40:36.200Z,3.1
2019-01-15T03:41:49.889Z,3.1
2019-01-15T03:44:12.781Z,3.2
2019-01-15T03:45:25.013Z,3.2
2019-01-15T03:47:49.293Z,3.2
2019-01-15T03:49:01.491Z,3.2
2019-01-15T03:50:13.691Z,3.2
2019-01-15T03:51:25.920Z,3.2
2019-01-15T03:52:38.173Z,3.2
2019-01-15T03:53:50.350Z,3.2
2019-01-15T03:56:14.764Z,3.2
2019-01-15T03:57:26.917Z,3.2
2019-01-15T03:58:39.064Z,3.2
2019-01-15T03:59:51.268Z,3.2
2019-01-15T04:02:15.718Z,3.2
2019-01-15T04:03:27.859Z,3.2
2019-01-15T04:04:40.062Z,3.2
2019-01-15T04:05:52.305Z,3.2
2019-01-15T04:08:16.743Z,3.2
2019-01-15T04:09:28.884Z,3.2
2019-01-15T04:10:41.742Z,3.3
2019-01-15T04:11:53.339Z,3.2
2019-01-15T04:13:05.408Z,3.2
2019-01-15T04:14:17.778Z,3.2
2019-01-15T04:15:29.949Z,3.2
2019-01-15T04:16:41.989Z,3.2
2019-01-15T04:17:54.247Z,3.2
2019-01-15T04:20:18.610Z,3.2
2019-01-15T04:21:30.860Z,3.2
2019-01-15T04:22:43.017Z,3.2
2019-01-15T04:23:55.167Z,3.2
2019-01-15T04:25:07.357Z,3.2
2019-01-15T04:26:19.543Z,3.2
2019-01-15T04:27:31.824Z,3.3
2019-01-15T04:28:43.936Z,3.3
2019-01-15T04:29:56.328Z,3.3
2019-01-15T04:32:21.214Z,3.3
2019-01-15T04:33:32.721Z,3.3
2019-01-15T04:34:44.966Z,3.3
2019-01-15T04:35:57.208Z,3.2
2019-01-15T04:37:09.506Z,3.3
2019-01-15T04:38:21.576Z,3.3
2019-01-15T04:40:45.892Z,3.2
2019-01-15T04:41:58.089Z,3.2
2019-01-15T04:44:22.647Z,3.3
2019-01-15T04:45:34.680Z,3.2
2019-01-15T04:46:47.000Z,3.3
2019-01-15T04:47:59.067Z,3.3
2019-01-15T04:49:11.268Z,3.3
2019-01-15T04:50:23.449Z,3.3
2019-01-15T04:51:35.721Z,3.3
2019-01-15T04:52:47.854Z,3.3
2019-01-15T04:54:00.272Z,3.3
2019-01-15T04:56:24.504Z,3.3
2019-01-15T04:57:36.642Z,3.3
2019-01-15T04:58:48.918Z,3.3
2019-01-15T05:00:01.035Z,3.3
2019-01-15T05:01:13.232Z,3.3
2019-01-15T05:02:25.518Z,3.3
2019-01-15T05:03:37.627Z,3.3
2019-01-15T05:04:49.824Z,3.4
2019-01-15T05:06:02.129Z,3.4
2019-01-15T05:08:26.397Z,3.4
2019-01-15T05:09:38.696Z,3.4
2019-01-15T05:10:50.847Z,3.4
2019-01-15T05:12:02.984Z,3.4
2019-01-15T05:13:15.299Z,3.4
2019-01-15T05:14:27.454Z,3.4
2019-01-15T05:16:51.842Z,3.4
2019-01-15T05:18:03.955Z,3.4
2019-01-15T05:20:28.516Z,3.4
2019-01-15T05:21:40.650Z,3.4
2019-01-15T05:22:52.845Z,3.4
2019-01-15T05:24:04.935Z,3.4
2019-01-15T05:25:17.220Z,3.4
2019-01-15T05:26:29.324Z,3.4
2019-01-15T05:28:53.791Z,3.4
2019-01-15T05:30:06.064Z,3.4
2019-01-15T05:31:18.113Z,3.4
2019-01-15T05:32:30.397Z,3.4
2019-01-15T05:33:42.503Z,3.4
2019-01-15T05:34:54.824Z,3.4
2019-01-15T05:36:06.961Z,3.4
2019-01-15T05:37:19.166Z,3.4
2019-01-15T05:38:31.352Z,3.4
2019-01-15T05:39:43.477Z,3.4
2019-01-15T05:40:55.709Z,3.4
2019-01-15T05:42:11.554Z,3.3
2019-01-15T05:44:32.285Z,3.3
2019-01-15T05:45:44.592Z,3.3
2019-01-15T05:46:56.689Z,3.3
2019-01-15T05:48:08.868Z,3.3
2019-01-15T05:49:21.235Z,3.3
2019-01-15T05:50:33.254Z,3.3
2019-01-15T05:51:45.507Z,3.3
2019-01-15T05:52:57.623Z,3.3
2019-01-15T05:54:09.953Z,3.3
2019-01-15T05:56:34.272Z,3.3
2019-01-15T05:57:46.423Z,3.3
2019-01-15T05:58:58.675Z,3.3
2019-01-15T06:00:10.937Z,3.3
2019-01-15T06:01:23.013Z,3.3
2019-01-15T06:02:35.187Z,3.3
2019-01-15T06:03:47.640Z,3.3
2019-01-15T06:04:59.697Z,3.3
2019-01-15T06:06:11.810Z,3.3
2019-01-15T06:08:36.245Z,3.3
2019-01-15T06:09:48.431Z,3.3
2019-01-15T06:11:00.634Z,3.3
2019-01-15T06:12:12.861Z,3.3
2019-01-15T06:13:24.949Z,3.3
2019-01-15T06:14:37.148Z,3.3
2019-01-15T06:15:49.515Z,3.3
2019-01-15T06:17:01.549Z,3.3
2019-01-15T06:18:14.281Z,3.3
2019-01-15T06:19:26.018Z,3.3
2019-01-15T06:20:38.290Z,3.4
2019-01-15T06:21:50.320Z,3.4
2019-01-15T06:23:02.615Z,3.4
2019-01-15T06:24:14.788Z,3.4
2019-01-15T06:25:26.998Z,3.4
2019-01-15T06:26:39.182Z,3.4
2019-01-15T06:27:51.303Z,3.4
2019-01-15T06:29:03.491Z,3.4
2019-01-15T06:30:15.704Z,3.4
2019-01-15T06:31:27.965Z,3.4
2019-01-15T06:32:40.285Z,3.4
2019-01-15T06:33:54.036Z,3.4
2019-01-15T06:35:04.569Z,3.4
2019-01-15T06:36:16.701Z,3.4
2019-01-15T06:37:28.958Z,3.4
2019-01-15T06:38:42.333Z,3.4
2019-01-15T06:39:53.318Z,3.4
2019-01-15T06:41:05.527Z,3.4
2019-01-15T06:42:17.784Z,3.4
2019-01-15T06:43:30.033Z,3.4
2019-01-15T06:44:42.038Z,3.5
2019-01-15T06:45:54.264Z,3.5
2019-01-15T06:47:06.548Z,3.5
2019-01-15T06:48:20.999Z,3.5
2019-01-15T06:49:30.859Z,3.5
2019-01-15T06:50:43.007Z,3.5
2019-01-15T06:51:55.291Z,3.5
2019-01-15T06:53:07.513Z,3.5
2019-01-15T06:54:19.687Z,3.5
2019-01-15T06:55:31.966Z,3.5
2019-01-15T06:56:44.077Z,3.5
2019-01-15T06:57:56.263Z,3.5
2019-01-15T06:59:08.386Z,3.5
2019-01-15T07:00:20.639Z,3.5
2019-01-15T07:01:32.875Z,3.5
2019-01-15T07:02:44.982Z,3.5
2019-01-15T07:03:57.342Z,3.5
2019-01-15T07:05:09.458Z,3.5
2019-01-15T07:06:21.638Z,3.5
2019-01-15T07:07:33.935Z,3.6
2019-01-15T07:08:46.054Z,3.6
2019-01-15T07:09:58.192Z,3.6
2019-01-15T07:11:10.409Z,3.6
2019-01-15T07:12:22.540Z,3.6
2019-01-15T07:13:34.826Z,3.6
2019-01-15T07:14:47.070Z,3.6
2019-01-15T07:15:59.194Z,3.6
2019-01-15T07:17:11.322Z,3.6
2019-01-15T07:18:23.631Z,3.6
2019-01-15T07:19:35.800Z,3.6
2019-01-15T07:20:47.982Z,3.6
2019-01-15T07:22:00.110Z,3.6
2019-01-15T07:23:12.354Z,3.7
2019-01-15T07:24:24.563Z,3.7
2019-01-15T07:25:36.689Z,3.7
2019-01-15T07:26:48.910Z,3.7
2019-01-15T07:28:01.273Z,3.7
2019-01-15T07:29:13.354Z,3.7
2019-01-15T07:30:25.635Z,3.7
2019-01-15T07:31:37.760Z,3.7
2019-01-15T07:32:49.865Z,3.7
2019-01-15T07:34:02.164Z,3.7
2019-01-15T07:35:14.242Z,3.7
2019-01-15T07:36:26.545Z,3.7
2019-01-15T07:37:38.798Z,3.7
2019-01-15T07:38:50.915Z,3.7
2019-01-15T07:40:03.052Z,3.8
2019-01-15T07:41:15.320Z,3.8
2019-01-15T07:42:27.484Z,3.8
2019-01-15T07:43:39.746Z,3.8
2019-01-15T07:44:51.914Z,3.8
2019-01-15T07:46:04.022Z,3.8
2019-01-15T07:47:16.478Z,3.8
2019-01-15T07:48:28.409Z,3.8
2019-01-15T07:49:40.604Z,3.8
2019-01-15T07:50:52.794Z,3.8
2019-01-15T07:52:05.000Z,3.8
2019-01-15T07:53:17.208Z,3.8
2019-01-15T07:54:29.554Z,3.8
2019-01-15T07:55:41.668Z,3.9
2019-01-15T07:56:54.047Z,3.9
2019-01-15T07:58:06.070Z,3.9
2019-01-15T07:59:18.247Z,3.9
2019-01-15T08:00:30.444Z,3.9
2019-01-15T08:01:42.639Z,3.9
2019-01-15T08:02:54.750Z,3.9
2019-01-15T08:04:07.045Z,4
2019-01-15T08:05:19.149Z,4
2019-01-15T08:06:31.430Z,4
2019-01-15T08:07:43.717Z,4
2019-01-15T08:08:55.913Z,4
2019-01-15T08:10:07.994Z,4
2019-01-15T08:11:20.201Z,4
2019-01-15T08:12:32.529Z,4.1
2019-01-15T08:13:44.532Z,4.1
2019-01-15T08:14:56.720Z,4.1
2019-01-15T08:16:08.992Z,4.1
2019-01-15T08:17:21.170Z,4.1
2019-01-15T08:18:33.514Z,4.1
2019-01-15T08:19:45.687Z,4.1
2019-01-15T08:20:57.802Z,4.1
2019-01-15T08:22:09.882Z,4.2
2019-01-15T08:23:22.194Z,4.2
2019-01-15T08:24:34.367Z,4.2
2019-01-15T08:25:46.562Z,4.2
2019-01-15T08:26:58.698Z,4.2
2019-01-15T08:28:11.025Z,4.3
2019-01-15T08:29:23.082Z,4.3
2019-01-15T08:30:35.313Z,4.3
2019-01-15T08:31:47.545Z,4.3
2019-01-15T08:32:59.662Z,4.3
2019-01-15T08:34:11.924Z,4.3
2019-01-15T08:35:24.138Z,4.3
2019-01-15T08:36:36.234Z,4.3
2019-01-15T08:37:49.567Z,4.3
2019-01-15T08:39:00.625Z,4.4
2019-01-15T08:40:12.810Z,4.4
2019-01-15T08:41:25.107Z,4.4
2019-01-15T08:42:37.292Z,4.4
2019-01-15T08:43:49.502Z,4.4
2019-01-15T08:45:01.690Z,4.5
2019-01-15T08:46:13.795Z,4.5
2019-01-15T08:47:26.003Z,4.5
2019-01-15T08:48:38.192Z,4.5
2019-01-15T08:49:50.559Z,4.5
2019-01-15T08:51:02.599Z,4.5
2019-01-15T08:52:14.879Z,4.6
2019-01-15T08:53:27.047Z,4.6
2019-01-15T08:54:39.258Z,4.6
2019-01-15T08:55:51.538Z,4.6
2019-01-15T08:57:03.569Z,4.6
2019-01-15T08:58:15.845Z,4.6
2019-01-15T08:59:27.951Z,4.7
2019-01-15T09:00:40.182Z,4.7
2019-01-15T09:01:52.432Z,4.7
2019-01-15T09:03:04.621Z,4.7
2019-01-15T09:04:16.732Z,4.8
2019-01-15T09:05:28.957Z,4.8
2019-01-15T09:06:41.135Z,5
2019-01-15T09:07:53.412Z,5
2019-01-15T09:09:05.529Z,5
2019-01-15T09:10:17.746Z,5
2019-01-15T09:11:29.996Z,5
2019-01-15T09:12:42.187Z,5
2019-01-15T09:13:54.382Z,5
2019-01-15T09:15:06.507Z,5
2019-01-15T09:16:18.702Z,5
2019-01-15T09:17:31.406Z,5
2019-01-15T09:18:43.196Z,5
2019-01-15T09:19:55.371Z,5
2019-01-15T09:21:07.685Z,5
2019-01-15T09:22:19.675Z,5
2019-01-15T09:23:32.043Z,5
2019-01-15T09:24:44.139Z,5
2019-01-15T09:25:56.275Z,5
2019-01-15T09:27:08.533Z,5
2019-01-15T09:28:20.758Z,5.1
2019-01-15T09:29:32.898Z,5.1
2019-01-15T09:30:45.215Z,5.1
2019-01-15T09:31:57.384Z,5.1
2019-01-15T09:33:09.610Z,5.1
2019-01-15T09:34:21.629Z,5.1
2019-01-15T09:35:33.941Z,5.1
2019-01-15T09:36:46.017Z,5.1
2019-01-15T09:37:58.295Z,5.2
2019-01-15T09:39:10.420Z,5.2
2019-01-15T09:40:22.763Z,5.2
2019-01-15T09:41:34.907Z,5.2
2019-01-15T09:42:47.018Z,5.2
2019-01-15T09:43:59.361Z,5.2
2019-01-15T09:45:11.479Z,5.2
2019-01-15T09:46:23.595Z,5.2
2019-01-15T09:47:35.954Z,5.3
2019-01-15T09:48:48.095Z,5.3
2019-01-15T09:50:00.256Z,5.3
2019-01-15T09:51:12.500Z,5.3
2019-01-15T09:52:24.659Z,5.3
2019-01-15T09:53:36.833Z,5.3
2019-01-15T09:54:49.052Z,5.3
2019-01-15T09:56:01.324Z,5.3
2019-01-15T09:57:13.446Z,5.3
2019-01-15T09:58:25.536Z,5.4
2019-01-15T09:59:37.836Z,5.4
2019-01-15T10:00:50.027Z,5.4
2019-01-15T10:02:02.339Z,5.4
2019-01-15T10:03:14.326Z,5.4
2019-01-15T10:04:26.532Z,5.4
2019-01-15T10:05:38.718Z,5.4
2019-01-15T10:06:50.908Z,5.4
2019-01-15T10:08:03.234Z,5.5
2019-01-15T10:09:15.414Z,5.5
2019-01-15T10:10:27.495Z,5.5
2019-01-15T10:11:39.788Z,5.5
2019-01-15T10:12:51.883Z,5.5
2019-01-15T10:14:04.074Z,5.5
2019-01-15T10:15:16.314Z,5.5
2019-01-15T10:16:28.541Z,5.5
2019-01-15T10:17:40.745Z,5.6
2019-01-15T10:18:53.044Z,5.6
2019-01-15T10:20:05.144Z,5.6
2019-01-15T10:21:17.422Z,5.6
2019-01-15T10:22:29.616Z,5.6
2019-01-15T10:23:41.864Z,5.6
2019-01-15T10:24:53.911Z,5.6
2019-01-15T10:26:06.118Z,5.6
2019-01-15T10:27:18.299Z,5.6
2019-01-15T10:28:30.523Z,5.6
2019-01-15T10:29:42.695Z,5.6
2019-01-15T10:30:54.928Z,5.7
2019-01-15T10:32:07.109Z,5.7
2019-01-15T10:33:20.083Z,5.7
2019-01-15T10:34:31.520Z,5.8
2019-01-15T10:35:43.710Z,5.8
2019-01-15T10:36:55.790Z,5.8
2019-01-15T10:38:08.070Z,5.8
2019-01-15T10:39:20.179Z,5.8
2019-01-15T10:40:32.548Z,5.8
2019-01-15T10:41:44.655Z,5.8
2019-01-15T10:42:56.870Z,5.8
2019-01-15T10:44:09.054Z,5.9
2019-01-15T10:45:21.271Z,5.9
2019-01-15T10:46:33.369Z,5.9
2019-01-15T10:47:45.673Z,5.9
2019-01-15T10:48:57.741Z,5.9
2019-01-15T10:50:10.041Z,6
2019-01-15T10:51:22.147Z,6
2019-01-15T10:52:34.405Z,6
2019-01-15T10:53:46.627Z,6
2019-01-15T10:54:58.800Z,6
2019-01-15T10:56:11.052Z,6
2019-01-15T10:57:23.158Z,6.1
2019-01-15T10:58:35.307Z,6.1
2019-01-15T10:59:47.606Z,6.1
2019-01-15T11:00:59.818Z,6.1
2019-01-15T11:02:12.283Z,6.1
2019-01-15T11:03:24.093Z,6.1
2019-01-15T11:04:36.469Z,6.2
2019-01-15T11:05:48.487Z,6.2
2019-01-15T11:07:00.774Z,6.2
2019-01-15T11:08:12.960Z,6.2
2019-01-15T11:09:25.146Z,6.3
2019-01-15T11:10:37.340Z,6.3
2019-01-15T11:11:49.458Z,6.3
2019-01-15T11:13:01.662Z,6.3
2019-01-15T11:14:13.906Z,6.3
2019-01-15T11:15:26.136Z,6.3
2019-01-15T11:16:38.319Z,6.4
2019-01-15T11:17:50.525Z,6.4
2019-01-15T11:19:02.693Z,6.4
2019-01-15T11:20:14.922Z,6.4
2019-01-15T11:21:28.195Z,6.4
2019-01-15T11:22:39.261Z,6.4
2019-01-15T11:23:51.566Z,6.4
2019-01-15T11:25:03.684Z,6.5
2019-01-15T11:26:15.896Z,6.5
2019-01-15T11:27:27.998Z,6.5
2019-01-15T11:28:40.283Z,6.5
2019-01-15T11:29:52.461Z,6.5
2019-01-15T11:31:04.653Z,6.5
2019-01-15T11:32:16.885Z,6.5
2019-01-15T11:33:28.975Z,6.5
2019-01-15T11:34:41.252Z,6.5
2019-01-15T11:35:53.472Z,6.5
2019-01-15T11:37:05.566Z,6.5
2019-01-15T11:38:17.891Z,6.5
2019-01-15T11:39:29.961Z,6.5
2019-01-15T11:40:42.243Z,6.5
2019-01-15T11:41:54.353Z,6.5
2019-01-15T11:43:06.648Z,6.5
2019-01-15T11:44:18.835Z,6.5
2019-01-15T11:45:30.939Z,6.5
2019-01-15T11:46:43.140Z,6.4
2019-01-15T11:47:55.515Z,6.5
2019-01-15T11:49:07.600Z,6.5
2019-01-15T11:50:21.162Z,6.5
2019-01-15T11:51:31.912Z,6.5
2019-01-15T11:52:44.248Z,6.5
2019-01-15T11:53:56.394Z,6.5
2019-01-15T11:55:08.495Z,6.5
2019-01-15T11:56:20.904Z,6.5
2019-01-15T11:57:32.889Z,6.5
2019-01-15T11:58:45.166Z,6.5
2019-01-15T11:59:57.398Z,6.5
2019-01-15T12:01:09.495Z,6.5
2019-01-15T12:02:21.741Z,6.5
2019-01-15T12:03:33.945Z,6.5
2019-01-15T12:04:46.289Z,6.5
2019-01-15T12:05:58.315Z,6.5
2019-01-15T12:07:10.571Z,6.5
2019-01-15T12:08:22.803Z,6.5
2019-01-15T12:09:34.841Z,6.5
2019-01-15T12:10:47.173Z,6.5
2019-01-15T12:11:59.228Z,6.5
2019-01-15T12:13:11.433Z,6.5
2019-01-15T12:14:23.697Z,6.5
2019-01-15T12:15:35.907Z,6.5
2019-01-15T12:16:47.992Z,6.5
2019-01-15T12:18:00.268Z,6.5
2019-01-15T12:19:12.528Z,6.5
2019-01-15T12:20:24.680Z,6.5
2019-01-15T12:21:36.885Z,6.5
2019-01-15T12:22:51.018Z,6.5
2019-01-15T12:24:01.267Z,6.5
2019-01-15T12:25:13.345Z,6.5
2019-01-15T12:26:25.631Z,6.6
2019-01-15T12:27:37.730Z,6.6
2019-01-15T12:28:50.012Z,6.5
2019-01-15T12:30:02.127Z,6.5
2019-01-15T12:31:14.393Z,6.6
2019-01-15T12:32:26.606Z,6.6
2019-01-15T12:33:38.868Z,6.6
2019-01-15T12:34:50.965Z,6.6
2019-01-15T12:36:03.181Z,6.6
2019-01-15T12:37:15.284Z,6.6
2019-01-15T12:38:27.480Z,6.6
2019-01-15T12:39:39.671Z,6.6
2019-01-15T12:40:51.985Z,6.6
2019-01-15T12:42:04.143Z,6.6
2019-01-15T12:43:16.357Z,6.6
2019-01-15T12:44:28.563Z,6.6
2019-01-15T12:45:40.643Z,6.6
2019-01-15T12:46:52.838Z,6.6
2019-01-15T12:48:06.093Z,6.6
2019-01-15T12:49:17.355Z,6.7
2019-01-15T12:50:29.414Z,6.7
2019-01-15T12:51:41.606Z,6.7
2019-01-15T12:52:53.818Z,6.7
2019-01-15T12:54:06.063Z,6.7
2019-01-15T12:55:18.358Z,6.7
2019-01-15T12:56:30.478Z,6.7
2019-01-15T12:57:42.581Z,6.7
2019-01-15T12:58:55.721Z,6.7
2019-01-15T13:00:07.028Z,6.7
2019-01-15T13:01:19.269Z,6.7
2019-01-15T13:02:31.414Z,6.7
2019-01-15T13:03:43.566Z,6.7
2019-01-15T13:04:55.742Z,6.7
2019-01-15T13:06:07.944Z,6.7
2019-01-15T13:07:20.128Z,6.7
2019-01-15T13:08:32.497Z,6.7
2019-01-15T13:09:44.683Z,6.7
2019-01-15T13:10:56.801Z,6.7
2019-01-15T13:12:08.917Z,6.7
2019-01-15T13:13:21.195Z,6.7
2019-01-15T13:14:33.375Z,6.7
2019-01-15T13:15:45.491Z,6.7
2019-01-15T13:16:57.754Z,6.7
2019-01-15T13:18:09.953Z,6.7
2019-01-15T13:19:22.122Z,6.7
2019-01-15T13:20:34.354Z,6.7
2019-01-15T13:21:46.460Z,6.7
2019-01-15T13:22:58.721Z,6.7
2019-01-15T13:24:11.012Z,6.7
2019-01-15T13:25:23.041Z,6.7
2019-01-15T13:26:35.236Z,6.7
2019-01-15T13:27:47.537Z,6.7
2019-01-15T13:28:59.821Z,6.7
2019-01-15T13:30:11.814Z,6.7
2019-01-15T13:31:24.099Z,6.7
2019-01-15T13:32:36.305Z,6.7
2019-01-15T13:33:48.552Z,6.7
2019-01-15T13:35:00.606Z,6.7
2019-01-15T13:36:12.835Z,6.7
2019-01-15T13:37:25.068Z,6.7
2019-01-15T13:38:37.256Z,6.7
2019-01-15T13:39:49.413Z,6.7
2019-01-15T13:41:01.558Z,6.7
2019-01-15T13:42:13.751Z,6.7
2019-01-15T13:43:25.998Z,6.7
2019-01-15T13:44:38.342Z,6.7
2019-01-15T13:45:50.425Z,6.7
2019-01-15T13:47:02.666Z,6.7
2019-01-15T13:48:14.839Z,6.7
2019-01-15T13:49:27.007Z,6.7
2019-01-15T13:50:39.187Z,6.7
2019-01-15T13:51:51.437Z,6.7
2019-01-15T13:53:03.587Z,6.7
2019-01-15T13:54:15.682Z,6.7
2019-01-15T13:55:27.976Z,6.7
2019-01-15T13:56:40.244Z,6.7
2019-01-15T13:57:52.271Z,6.7
2019-01-15T13:59:04.471Z,6.7
2019-01-15T14:00:16.758Z,6.6
2019-01-15T14:01:28.921Z,6.6
2019-01-15T14:02:41.125Z,6.6
2019-01-15T14:03:53.242Z,6.6
2019-01-15T14:05:05.617Z,6.7
2019-01-15T14:06:21.253Z,6.7
2019-01-15T14:07:31.708Z,6.6
2019-01-15T14:08:42.178Z,6.6
2019-01-15T14:09:54.286Z,6.6
2019-01-15T14:11:06.456Z,6.6
2019-01-15T14:12:18.688Z,6.6
2019-01-15T14:13:30.795Z,6.6
2019-01-15T14:14:43.085Z,6.7
2019-01-15T14:15:55.254Z,6.6
2019-01-15T14:17:07.477Z,6.7
2019-01-15T14:18:19.640Z,6.7
2019-01-15T14:19:31.753Z,6.7
2019-01-15T14:20:44.042Z,6.7
2019-01-15T14:21:56.245Z,6.7
2019-01-15T14:23:08.422Z,6.7
2019-01-15T14:24:20.579Z,6.7
2019-01-15T14:25:32.728Z,6.7
2019-01-15T14:26:45.050Z,6.7
2019-01-15T14:27:57.115Z,6.7
2019-01-15T14:29:09.438Z,6.7
2019-01-15T14:30:21.494Z,6.7
2019-01-15T14:31:33.867Z,6.7
2019-01-15T14:32:45.983Z,6.7
2019-01-15T14:33:58.166Z,6.7
2019-01-15T14:35:10.362Z,6.7
2019-01-15T14:36:22.570Z,6.7
2019-01-15T14:37:34.800Z,6.7
2019-01-15T14:38:47.038Z,6.7
2019-01-15T14:39:59.058Z,6.7
2019-01-15T14:41:11.266Z,6.7
2019-01-15T14:42:23.439Z,6.7
2019-01-15T14:43:35.641Z,6.7
2019-01-15T14:44:47.939Z,6.7
2019-01-15T14:46:00.111Z,6.7
2019-01-15T14:47:12.229Z,6.7
2019-01-15T14:48:24.497Z,6.7
2019-01-15T14:49:36.601Z,6.7
2019-01-15T14:50:48.945Z,6.7
2019-01-15T14:52:01.016Z,6.7
2019-01-15T14:53:13.360Z,6.7
2019-01-15T14:54:25.388Z,6.7
2019-01-15T14:55:37.684Z,6.7
2019-01-15T14:56:49.941Z,6.6
2019-01-15T14:58:02.154Z,6.7
2019-01-15T14:59:14.152Z,6.6
2019-01-15T15:00:26.357Z,6.6
2019-01-15T15:01:38.669Z,6.6
2019-01-15T15:02:50.836Z,6.6
2019-01-15T15:04:02.930Z,6.6
2019-01-15T15:05:15.252Z,6.6
2019-01-15T15:06:27.402Z,6.6
2019-01-15T15:07:39.513Z,6.6
2019-01-15T15:08:51.889Z,6.6
2019-01-15T15:10:03.905Z,6.6
2019-01-15T15:11:16.146Z,6.6
2019-01-15T15:12:28.369Z,6.6
2019-01-15T15:13:40.531Z,6.6
2019-01-15T15:14:52.668Z,6.6
2019-01-15T15:16:04.940Z,6.6
2019-01-15T15:17:17.265Z,6.5
2019-01-15T15:18:29.262Z,6.6
2019-01-15T15:19:41.547Z,6.5
2019-01-15T15:20:53.735Z,6.5
2019-01-15T15:22:05.902Z,6.6
2019-01-15T15:23:18.038Z,6.6
2019-01-15T15:24:30.303Z,6.5
2019-01-15T15:25:42.421Z,6.5
2019-01-15T15:26:54.879Z,6.5
2019-01-15T15:28:06.810Z,6.5
2019-01-15T15:29:19.175Z,6.5
2019-01-15T15:30:31.686Z,6.5
2019-01-15T15:31:43.386Z,6.5
2019-01-15T15:32:55.751Z,6.5
2019-01-15T15:34:07.901Z,6.5
2019-01-15T15:35:20.054Z,6.5
2019-01-15T15:36:32.264Z,6.5
2019-01-15T15:37:44.355Z,6.5
2019-01-15T15:38:56.647Z,6.5
2019-01-15T15:40:08.813Z,6.5
2019-01-15T15:41:21.037Z,6.5
2019-01-15T15:42:33.132Z,6.5
2019-01-15T15:43:45.313Z,6.5
2019-01-15T15:44:57.696Z,6.5
2019-01-15T15:46:09.731Z,6.5
2019-01-15T15:47:21.991Z,6.5
2019-01-15T15:48:34.160Z,6.5
2019-01-15T15:49:46.552Z,6.5
2019-01-15T15:50:58.564Z,6.5
2019-01-15T15:52:10.755Z,6.5
2019-01-15T15:53:22.883Z,6.5
2019-01-15T15:54:35.058Z,6.5
2019-01-15T15:55:47.468Z,6.5
2019-01-15T15:56:59.546Z,6.5
2019-01-15T15:58:11.735Z,6.5
2019-01-15T15:59:23.926Z,6.5
2019-01-15T16:00:36.050Z,6.5
2019-01-15T16:01:48.243Z,6.5
2019-01-15T16:03:00.583Z,6.5
2019-01-15T16:04:12.707Z,6.5
2019-01-15T16:05:24.820Z,6.5
2019-01-15T16:06:37.021Z,6.5
2019-01-15T16:07:49.450Z,6.5
2019-01-15T16:09:01.619Z,6.5
2019-01-15T16:10:13.778Z,6.5
2019-01-15T16:11:25.803Z,6.5
2019-01-15T16:12:37.975Z,6.5
2019-01-15T16:13:50.164Z,6.5
2019-01-15T16:15:02.457Z,6.5
2019-01-15T16:16:14.693Z,6.5
2019-01-15T16:17:26.833Z,6.5
2019-01-15T16:18:40.844Z,6.4
2019-01-15T16:19:51.143Z,6.4
2019-01-15T16:21:03.436Z,6.4
2019-01-15T16:22:15.600Z,6.4
2019-01-15T16:23:27.726Z,6.4
2019-01-15T16:24:40.000Z,6.4
2019-01-15T16:25:52.185Z,6.5
2019-01-15T16:27:04.317Z,6.5
2019-01-15T16:28:16.497Z,6.5
2019-01-15T16:29:28.769Z,6.5
2019-01-15T16:30:40.954Z,6.5
2019-01-15T16:31:53.180Z,6.5
2019-01-15T16:33:05.371Z,6.5
2019-01-15T16:34:17.528Z,6.5
2019-01-15T16:35:29.751Z,6.5
2019-01-15T16:36:41.862Z,6.5
2019-01-15T16:37:54.054Z,6.5
2019-01-15T16:39:06.333Z,6.5
2019-01-15T16:40:18.475Z,6.5
2019-01-15T16:41:30.685Z,6.5
2019-01-15T16:42:42.860Z,6.5
2019-01-15T16:43:55.108Z,6.5
2019-01-15T16:45:07.378Z,6.5
2019-01-15T16:46:19.507Z,6.5
2019-01-15T16:47:31.596Z,6.5
2019-01-15T16:48:43.783Z,6.5
2019-01-15T16:49:55.989Z,6.5
2019-01-15T16:51:08.174Z,6.5
2019-01-15T16:52:20.369Z,6.5
2019-01-15T16:53:32.657Z,6.5
2019-01-15T16:54:44.751Z,6.5
2019-01-15T16:55:56.965Z,6.5
2019-01-15T16:57:09.324Z,6.5
2019-01-15T16:58:21.437Z,6.5
2019-01-15T16:59:33.606Z,6.5
2019-01-15T17:00:45.916Z,6.5
2019-01-15T17:01:57.944Z,6.5
2019-01-15T17:03:10.202Z,6.5
2019-01-15T17:04:22.302Z,6.5
2019-01-15T17:05:34.579Z,6.5
2019-01-15T17:06:50.024Z,6.5
2019-01-15T17:07:59.084Z,6.5
2019-01-15T17:09:11.190Z,6.5
2019-01-15T17:10:23.453Z,6.5
2019-01-15T17:11:35.555Z,6.5
2019-01-15T17:12:47.663Z,6.5
2019-01-15T17:14:00.004Z,6.5
2019-01-15T17:15:12.185Z,6.5
2019-01-15T17:16:24.281Z,6.5
2019-01-15T17:17:36.514Z,6.5
2019-01-15T17:18:48.698Z,6.5
2019-01-15T17:20:00.915Z,6.5
2019-01-15T17:21:13.120Z,6.5
2019-01-15T17:22:25.393Z,6.5
2019-01-15T17:23:37.403Z,6.5
2019-01-15T17:24:49.600Z,6.5
2019-01-15T17:26:01.867Z,6.5
2019-01-15T17:27:14.126Z,6.5
2019-01-15T17:28:26.252Z,6.5